Ana Sayfa
METAR-TAF:

METAR-TAF

Havaalanları :

Funchal, Madeira, Portekiz

Enlem: 32-41-52N, Boylam: 016-46-28W, yükseklik: 59 m

Güncel hava durumu gözlemi

Rapor saat 22:00 UTC de 22 dakika önce yapıldı.
Rüzgar kuzeydan 8 kt
Sıcaklık 16°C
Nem 82%
Basınç 1031 hPa
Görüş mesafesi 10 km veya daha fazla
1600 ft yükseklikte parçalı bulutlu

METAR: LPMA 212200Z 35008KT 9999 SCT016 16/13 Q1031

Saat: 22:22 (22:22 UTC)

Tahmin

Rapor saat 17:00 UTC de 5 saat ve 22 dakika önce yapıldı.
Ayın 21'si saat 18 UTC'den ayın 22'si saat 18 UTC'ye kadar geçerli Tahmin
Rüzgar kuzey/kuzeydoğudan 8 kt
Görüş mesafesi 10 km veya daha fazla
1500 ft yükseklikte parçalı bulutlu
Dönüşüyor
ayın 22'si saat 16 UTC'den ayın 22'si saat 18 UTC'ye kadar
1500 ft yükseklikte parçalı bulutlu
3000 ft yükseklikte parçalı çok bulutlu

TAF: LPMA 211700Z 2118/2218 02008KT 9999 SCT015 BECMG 2216/2218 SCT015 BKN030

4.000'den fazla havaalanı için hava durumu gözlemleri ve tahminleri (METAR ve TAF raporları).

Kullanılabilir istasyonlar harita üzerinde sarı ve kırmızı noktalarla gösterilir.

İstasyonun adını görmek için fareyi noktanın üzerinde gezdirin.

Sonrasında hava gözlem ve tahminlerini görmek için tıklayın.

Haritayı değiştirmek için: yaklaştırmak için siyah artı işaretli yeşil düğmeye ve uzaklaştırmak için de eksi işaretli düğmeye hızla tıklayın; bitişik haritalar için yeşil okları kullanın.


METAR-TAF: